KOSH

Wittman Regional Airport

Oshkosh, Wisconsin, USA
METAR KOSH 181453Z 20010KT 10SM CLR 06/M03 A3045 RMK AO2 SLP321 T00561033 58005
Observed Flight Rules
Oct-18 @ 14:53 UTC (an hour ago) Visual Flight Rules
Wind Visibility Clouds
200° at 10 knots 10 miles
  • Clear skies
Temperatures Readings
Current 6°C / 43°F
Dewpoint -3°C / 27°F
Humidity 53%
Altimeter 30.45" Hg
Pressure 1032.1 hPa
Elevation 248
METAR KOSH 181453Z 20010KT 10SM CLR 06/M03 A3045 RMK AO2 SLP321 T00561033 58005
Observed Flight Rules
Oct-18 @ 14:53 UTC
(an hour ago)
VFR
Wind Visibility
200° at 10 knots 10 miles
Clouds
  • Clear skies
Temperature Dewpoint
6°C / 43°F -3°C / 27°F
Humidity Altimeter Pressure
53% 30.45" Hg 1032.1 hPa